sensor_id;sensor_type;location;lat;lon;timestamp;pressure;altitude;pressure_sealevel;temperature;humidity
34674;BME280;20879;55.668;37.858;2023-09-18T00:01:34;100333.91;;;9.03;100.00
34674;BME280;20879;55.668;37.858;2023-09-18T00:04:12;100333.94;;;9.08;100.00
34674;BME280;20879;55.668;37.858;2023-09-18T00:06:42;100332.22;;;9.07;100.00
34674;BME280;20879;55.668;37.858;2023-09-18T00:09:18;100332.19;;;9.08;100.00
34674;BME280;20879;55.668;37.858;2023-09-18T00:11:58;100329.63;;;9.12;100.00
34674;BME280;20879;55.668;37.858;2023-09-18T00:14:29;100330.50;;;9.18;100.00
34674;BME280;20879;55.668;37.858;2023-09-18T00:17:02;100333.94;;;9.26;100.00
34674;BME280;20879;55.668;37.858;2023-09-18T00:19:33;100334.78;;;9.41;100.00
34674;BME280;20879;55.668;37.858;2023-09-18T00:22:05;100333.03;;;9.63;100.00
34674;BME280;20879;55.668;37.858;2023-09-18T00:24:43;100329.56;;;9.73;100.00
34674;BME280;20879;55.668;37.858;2023-09-18T00:27:12;100336.44;;;9.91;100.00
34674;BME280;20879;55.668;37.858;2023-09-18T00:29:50;100328.69;;;9.96;100.00
34674;BME280;20879;55.668;37.858;2023-09-18T00:32:21;100315.72;;;10.02;100.00
34674;BME280;20879;55.668;37.858;2023-09-18T00:34:51;100317.38;;;10.15;100.00
34674;BME280;20879;55.668;37.858;2023-09-18T00:37:24;100322.53;;;10.28;100.00
34674;BME280;20879;55.668;37.858;2023-09-18T00:40:04;100326.81;;;10.38;100.00
34674;BME280;20879;55.668;37.858;2023-09-18T00:42:35;100330.25;;;10.42;100.00
34674;BME280;20879;55.668;37.858;2023-09-18T00:45:14;100321.63;;;10.35;100.00
34674;BME280;20879;55.668;37.858;2023-09-18T00:47:44;100325.94;;;10.39;100.00
34674;BME280;20879;55.668;37.858;2023-09-18T00:50:22;100329.41;;;10.38;100.00
34674;BME280;20879;55.668;37.858;2023-09-18T00:52:53;100330.28;;;10.34;100.00
34674;BME280;20879;55.668;37.858;2023-09-18T00:55:36;100327.69;;;10.34;100.00
34674;BME280;20879;55.668;37.858;2023-09-18T00:58:09;100290.66;;;10.17;99.79
34674;BME280;20879;55.668;37.858;2023-09-18T01:00:40;100323.34;;;10.42;99.82
34674;BME280;20879;55.668;37.858;2023-09-18T01:03:13;100324.19;;;10.44;99.04
34674;BME280;20879;55.668;37.858;2023-09-18T01:05:52;100321.59;;;10.47;99.08
34674;BME280;20879;55.668;37.858;2023-09-18T01:08:28;100318.16;;;10.48;98.73
34674;BME280;20879;55.668;37.858;2023-09-18T01:11:06;100312.97;;;10.48;98.25
34674;BME280;20879;55.668;37.858;2023-09-18T01:13:46;100318.97;;;10.54;98.29
34674;BME280;20879;55.668;37.858;2023-09-18T01:16:25;100312.91;;;10.58;97.58
34674;BME280;20879;55.668;37.858;2023-09-18T01:18:57;100307.66;;;10.69;97.80
34674;BME280;20879;55.668;37.858;2023-09-18T01:21:31;100302.41;;;10.82;97.20
34674;BME280;20879;55.668;37.858;2023-09-18T01:24:04;100303.19;;;10.94;96.35
34674;BME280;20879;55.668;37.858;2023-09-18T01:26:44;100306.53;;;11.07;95.73
34674;BME280;20879;55.668;37.858;2023-09-18T01:29:16;100307.31;;;11.16;95.36
34674;BME280;20879;55.668;37.858;2023-09-18T01:31:50;100302.06;;;11.26;94.61
34674;BME280;20879;55.668;37.858;2023-09-18T01:34:21;100300.25;;;11.34;94.51
34674;BME280;20879;55.668;37.858;2023-09-18T01:37:00;100293.31;;;11.41;93.24
34674;BME280;20879;55.668;37.858;2023-09-18T01:39:35;100284.69;;;11.37;93.23
34674;BME280;20879;55.668;37.858;2023-09-18T01:42:10;100294.94;;;11.46;93.19
34674;BME280;20879;55.668;37.858;2023-09-18T01:44:56;100294.94;;;11.46;92.62
34674;BME280;20879;55.668;37.858;2023-09-18T01:47:32;100283.75;;;11.43;92.52
34674;BME280;20879;55.668;37.858;2023-09-18T01:50:13;100280.28;;;11.45;92.22
34674;BME280;20879;55.668;37.858;2023-09-18T01:52:44;100250.22;;;11.26;92.34
34674;BME280;20879;55.668;37.858;2023-09-18T01:55:20;100288.13;;;11.39;92.31
34674;BME280;20879;55.668;37.858;2023-09-18T01:57:56;100281.28;;;11.29;92.19
34674;BME280;20879;55.668;37.858;2023-09-18T02:00:29;100277.94;;;11.17;92.82
34674;BME280;20879;55.668;37.858;2023-09-18T02:03:01;100272.03;;;11.00;93.07
34674;BME280;20879;55.668;37.858;2023-09-18T02:05:57;100269.50;;;10.91;93.27
34674;BME280;20879;55.668;37.858;2023-09-18T02:08:28;100273.03;;;10.80;93.21
34674;BME280;20879;55.668;37.858;2023-09-18T02:10:59;100273.13;;;10.68;93.98
34674;BME280;20879;55.668;37.858;2023-09-18T02:13:36;100280.97;;;10.59;94.10
34674;BME280;20879;55.668;37.858;2023-09-18T02:16:19;100273.25;;;10.49;94.80
34674;BME280;20879;55.668;37.858;2023-09-18T02:18:57;100268.97;;;10.44;95.42
34674;BME280;20879;55.668;37.858;2023-09-18T02:21:28;100271.59;;;10.38;95.64
34674;BME280;20879;55.668;37.858;2023-09-18T02:23:59;100270.72;;;10.32;95.99
34674;BME280;20879;55.668;37.858;2023-09-18T02:26:33;100265.59;;;10.26;95.98
34674;BME280;20879;55.668;37.858;2023-09-18T02:29:08;100260.41;;;10.25;96.60
34674;BME280;20879;55.668;37.858;2023-09-18T02:31:47;100264.72;;;10.27;96.51
34674;BME280;20879;55.668;37.858;2023-09-18T02:34:19;100264.69;;;10.35;96.49
34674;BME280;20879;55.668;37.858;2023-09-18T02:36:55;100257.75;;;10.43;96.25
34674;BME280;20879;55.668;37.858;2023-09-18T02:39:25;100238.72;;;10.51;96.27
34674;BME280;20879;55.668;37.858;2023-09-18T02:42:00;100257.56;;;10.71;96.14
34674;BME280;20879;55.668;37.858;2023-09-18T02:44:30;100253.19;;;10.81;95.62
34674;BME280;20879;55.668;37.858;2023-09-18T02:47:03;100254.00;;;10.86;95.13
34674;BME280;20879;55.668;37.858;2023-09-18T02:49:35;100249.63;;;10.94;95.17
34674;BME280;20879;55.668;37.858;2023-09-18T02:52:06;100245.25;;;10.98;94.51
34674;BME280;20879;55.668;37.858;2023-09-18T02:54:39;100247.81;;;11.01;94.42
34674;BME280;20879;55.668;37.858;2023-09-18T02:57:12;100247.00;;;10.99;94.28
34674;BME280;20879;55.668;37.858;2023-09-18T02:59:45;100241.84;;;10.96;94.74
34674;BME280;20879;55.668;37.858;2023-09-18T03:02:15;100245.34;;;10.89;94.69
34674;BME280;20879;55.668;37.858;2023-09-18T03:04:47;100246.34;;;10.74;94.98
34674;BME280;20879;55.668;37.858;2023-09-18T03:07:21;100234.38;;;10.59;95.31
34674;BME280;20879;55.668;37.858;2023-09-18T03:09:52;100246.50;;;10.47;95.74
34674;BME280;20879;55.668;37.858;2023-09-18T03:12:34;100238.78;;;10.41;96.45
34674;BME280;20879;55.668;37.858;2023-09-18T03:15:06;100242.19;;;10.48;96.46
34674;BME280;20879;55.668;37.858;2023-09-18T03:17:38;100245.59;;;10.58;96.00
34674;BME280;20879;55.668;37.858;2023-09-18T03:20:15;100239.50;;;10.65;95.92
34674;BME280;20879;55.668;37.858;2023-09-18T03:22:45;100240.31;;;10.73;95.97
34674;BME280;20879;55.668;37.858;2023-09-18T03:25:16;100229.91;;;10.76;95.85
34674;BME280;20879;55.668;37.858;2023-09-18T03:27:51;100239.38;;;10.79;95.61
34674;BME280;20879;55.668;37.858;2023-09-18T03:30:35;100247.13;;;10.80;95.64
34674;BME280;20879;55.668;37.858;2023-09-18T03:33:13;100251.41;;;10.88;95.17
34674;BME280;20879;55.668;37.858;2023-09-18T03:35:47;100249.63;;;10.96;95.53
34674;BME280;20879;55.668;37.858;2023-09-18T03:38:31;100239.13;;;11.11;94.59
34674;BME280;20879;55.668;37.858;2023-09-18T03:41:07;100237.28;;;11.23;94.67
34674;BME280;20879;55.668;37.858;2023-09-18T03:43:47;100244.88;;;11.41;93.99
34674;BME280;20879;55.668;37.858;2023-09-18T03:46:18;100242.16;;;11.52;93.72
34674;BME280;20879;55.668;37.858;2023-09-18T03:48:49;100242.97;;;11.59;93.32
34674;BME280;20879;55.668;37.858;2023-09-18T03:51:23;100225.59;;;11.64;92.76
34674;BME280;20879;55.668;37.858;2023-09-18T03:53:52;100234.09;;;11.78;92.60
34674;BME280;20879;55.668;37.858;2023-09-18T03:56:29;100231.47;;;11.81;92.19
34674;BME280;20879;55.668;37.858;2023-09-18T03:59:03;100241.69;;;11.97;91.33
34674;BME280;20879;55.668;37.858;2023-09-18T04:01:36;100244.25;;;12.00;91.49
34674;BME280;20879;55.668;37.858;2023-09-18T04:04:11;100240.75;;;12.04;91.04
34674;BME280;20879;55.668;37.858;2023-09-18T04:06:41;100249.31;;;12.09;90.93
34674;BME280;20879;55.668;37.858;2023-09-18T04:09:17;100237.16;;;12.14;90.62
34674;BME280;20879;55.668;37.858;2023-09-18T04:11:57;100237.91;;;12.21;90.08
34674;BME280;20879;55.668;37.858;2023-09-18T04:14:34;100240.41;;;12.29;90.13
34674;BME280;20879;55.668;37.858;2023-09-18T04:17:07;100241.16;;;12.37;89.43
34674;BME280;20879;55.668;37.858;2023-09-18T04:19:37;100232.41;;;12.43;89.53
34674;BME280;20879;55.668;37.858;2023-09-18T04:22:12;100236.66;;;12.48;88.93
34674;BME280;20879;55.668;37.858;2023-09-18T04:24:44;100230.56;;;12.51;88.93
34674;BME280;20879;55.668;37.858;2023-09-18T04:27:16;100229.66;;;12.55;88.44
34674;BME280;20879;55.668;37.858;2023-09-18T04:29:48;100238.97;;;12.68;88.04
34674;BME280;20879;55.668;37.858;2023-09-18T04:32:23;100228.50;;;12.73;87.83
34674;BME280;20879;55.668;37.858;2023-09-18T04:34:53;100229.28;;;12.78;87.17
34674;BME280;20879;55.668;37.858;2023-09-18T04:37:22;100217.16;;;12.79;87.50
34674;BME280;20879;55.668;37.858;2023-09-18T04:39:52;100220.31;;;12.98;87.03
34674;BME280;20879;55.668;37.858;2023-09-18T04:42:27;100221.88;;;13.08;86.30
34674;BME280;20879;55.668;37.858;2023-09-18T04:45:07;100221.66;;;13.19;85.70
34674;BME280;20879;55.668;37.858;2023-09-18T04:47:38;100218.06;;;13.26;85.65
34674;BME280;20879;55.668;37.858;2023-09-18T04:50:14;100209.31;;;13.32;85.00
34674;BME280;20879;55.668;37.858;2023-09-18T04:52:46;100215.16;;;13.44;84.73
34674;BME280;20879;55.668;37.858;2023-09-18T04:55:19;100214.19;;;13.50;84.36
34674;BME280;20879;55.668;37.858;2023-09-18T04:57:51;100212.53;;;13.46;84.08
34674;BME280;20879;55.668;37.858;2023-09-18T05:00:26;100216.72;;;13.55;83.90
34674;BME280;20879;55.668;37.858;2023-09-18T05:02:58;100210.63;;;13.56;83.75
34674;BME280;20879;55.668;37.858;2023-09-18T05:05:31;100213.16;;;13.59;83.86
34674;BME280;20879;55.668;37.858;2023-09-18T05:08:12;100211.59;;;13.50;83.38
34674;BME280;20879;55.668;37.858;2023-09-18T05:10:44;100212.53;;;13.46;83.45
34674;BME280;20879;55.668;37.858;2023-09-18T05:13:19;100210.66;;;13.53;83.55
34674;BME280;20879;55.668;37.858;2023-09-18T05:15:55;100215.81;;;13.56;83.51
34674;BME280;20879;55.668;37.858;2023-09-18T05:18:35;100220.00;;;13.63;83.30
34674;BME280;20879;55.668;37.858;2023-09-18T05:21:05;100221.69;;;13.66;83.46
34674;BME280;20879;55.668;37.858;2023-09-18T05:23:41;100211.22;;;13.69;83.30
34674;BME280;20879;55.668;37.858;2023-09-18T05:26:11;100216.56;;;13.61;82.98
34674;BME280;20879;55.668;37.858;2023-09-18T05:28:43;100223.75;;;13.48;83.64
34674;BME280;20879;55.668;37.858;2023-09-18T05:31:15;100228.19;;;13.44;84.19
34674;BME280;20879;55.668;37.858;2023-09-18T05:33:44;100222.81;;;13.52;84.01
34674;BME280;20879;55.668;37.858;2023-09-18T05:36:15;100229.63;;;13.59;83.84
34674;BME280;20879;55.668;37.858;2023-09-18T05:38:54;100226.06;;;13.63;83.35
34674;BME280;20879;55.668;37.858;2023-09-18T05:41:27;100230.41;;;13.63;83.29
34674;BME280;20879;55.668;37.858;2023-09-18T05:43:58;100232.16;;;13.62;83.13
34674;BME280;20879;55.668;37.858;2023-09-18T05:46:33;100228.41;;;13.76;83.23
34674;BME280;20879;55.668;37.858;2023-09-18T05:49:05;100228.97;;;13.92;82.90
34674;BME280;20879;55.668;37.858;2023-09-18T05:51:34;100237.06;;;14.19;82.04
34674;BME280;20879;55.668;37.858;2023-09-18T05:54:04;100237.81;;;14.25;81.60
34674;BME280;20879;55.668;37.858;2023-09-18T05:56:47;100228.09;;;14.33;80.68
34674;BME280;20879;55.668;37.858;2023-09-18T05:59:17;100225.28;;;14.41;81.16
34674;BME280;20879;55.668;37.858;2023-09-18T06:01:57;100235.38;;;14.55;80.67
34674;BME280;20879;55.668;37.858;2023-09-18T06:04:28;100214.88;;;14.41;80.33
34674;BME280;20879;55.668;37.858;2023-09-18T06:06:59;100231.94;;;14.55;80.00
34674;BME280;20879;55.668;37.858;2023-09-18T06:09:29;100223.06;;;14.63;80.21
34674;BME280;20879;55.668;37.858;2023-09-18T06:11:59;100214.75;;;14.85;79.24
34674;BME280;20879;55.668;37.858;2023-09-18T06:14:35;100202.22;;;14.99;78.36
34674;BME280;20879;55.668;37.858;2023-09-18T06:17:08;100218.31;;;14.81;78.30
34674;BME280;20879;55.668;37.858;2023-09-18T06:19:41;100209.72;;;14.76;78.65
34674;BME280;20879;55.668;37.858;2023-09-18T06:22:14;100210.69;;;14.73;79.25
34674;BME280;20879;55.668;37.858;2023-09-18T06:24:46;100205.25;;;14.82;78.96
34674;BME280;20879;55.668;37.858;2023-09-18T06:27:19;100194.84;;;14.81;78.82
34674;BME280;20879;55.668;37.858;2023-09-18T06:30:02;100210.53;;;14.79;78.16
34674;BME280;20879;55.668;37.858;2023-09-18T06:32:34;100227.84;;;14.82;78.96
34674;BME280;20879;55.668;37.858;2023-09-18T06:35:08;100209.53;;;14.85;78.51
34674;BME280;20879;55.668;37.858;2023-09-18T06:37:43;100225.94;;;14.89;78.49
34674;BME280;20879;55.668;37.858;2023-09-18T06:40:20;100230.31;;;14.88;77.87
34674;BME280;20879;55.668;37.858;2023-09-18T06:42:51;100212.91;;;14.89;78.33
34674;BME280;20879;55.668;37.858;2023-09-18T06:45:26;100233.56;;;14.98;77.98
34674;BME280;20879;55.668;37.858;2023-09-18T06:47:58;100230.66;;;15.09;77.71
34674;BME280;20879;55.668;37.858;2023-09-18T06:50:29;100233.53;;;15.32;77.12
34674;BME280;20879;55.668;37.858;2023-09-18T06:53:01;100231.19;;;15.54;76.43
34674;BME280;20879;55.668;37.858;2023-09-18T06:55:43;100230.31;;;15.87;75.62
34674;BME280;20879;55.668;37.858;2023-09-18T06:58:17;100217.31;;;16.15;74.46
34674;BME280;20879;55.668;37.858;2023-09-18T07:00:51;100220.47;;;16.25;73.58
34674;BME280;20879;55.668;37.858;2023-09-18T07:03:31;100230.25;;;16.47;73.20
34674;BME280;20879;55.668;37.858;2023-09-18T07:06:03;100224.16;;;16.74;72.40
34674;BME280;20879;55.668;37.858;2023-09-18T07:08:33;100221.47;;;17.04;71.70
34674;BME280;20879;55.668;37.858;2023-09-18T07:11:03;100225.38;;;17.18;70.00
34674;BME280;20879;55.668;37.858;2023-09-18T07:13:40;100219.88;;;17.25;70.09
34674;BME280;20879;55.668;37.858;2023-09-18T07:16:17;100227.03;;;17.69;68.78
34674;BME280;20879;55.668;37.858;2023-09-18T07:18:49;100227.84;;;17.95;67.47
34674;BME280;20879;55.668;37.858;2023-09-18T07:21:21;100235.91;;;17.89;67.39
34674;BME280;20879;55.668;37.858;2023-09-18T07:23:50;100229.19;;;17.58;66.97
34674;BME280;20879;55.668;37.858;2023-09-18T07:26:27;100226.06;;;17.23;68.10
34674;BME280;20879;55.668;37.858;2023-09-18T07:29:04;100234.56;;;17.04;68.39
34674;BME280;20879;55.668;37.858;2023-09-18T07:31:34;100250.69;;;16.90;69.08
34674;BME280;20879;55.668;37.858;2023-09-18T07:34:07;100245.31;;;16.95;69.04
34674;BME280;20879;55.668;37.858;2023-09-18T07:36:42;100246.53;;;16.83;69.51
34674;BME280;20879;55.668;37.858;2023-09-18T07:39:19;100240.03;;;16.68;69.25
34674;BME280;20879;55.668;37.858;2023-09-18T07:41:51;100227.75;;;16.43;70.10
34674;BME280;20879;55.668;37.858;2023-09-18T07:44:30;100258.03;;;16.77;70.41
34674;BME280;20879;55.668;37.858;2023-09-18T07:47:11;100262.50;;;17.02;69.57
34674;BME280;20879;55.668;37.858;2023-09-18T07:49:43;100245.50;;;16.89;69.40
34674;BME280;20879;55.668;37.858;2023-09-18T07:52:14;100263.25;;;16.51;70.35
34674;BME280;20879;55.668;37.858;2023-09-18T07:54:50;100277.06;;;16.26;71.06
34674;BME280;20879;55.668;37.858;2023-09-18T07:57:21;100274.59;;;16.21;71.44
34674;BME280;20879;55.668;37.858;2023-09-18T07:59:51;100281.44;;;16.25;71.64
34674;BME280;20879;55.668;37.858;2023-09-18T08:02:29;100280.75;;;16.19;71.39
34674;BME280;20879;55.668;37.858;2023-09-18T08:05:05;100291.19;;;16.19;72.16
34674;BME280;20879;55.668;37.858;2023-09-18T08:07:36;100272.56;;;16.31;71.42
34674;BME280;20879;55.668;37.858;2023-09-18T08:10:09;100281.53;;;16.22;71.33
34674;BME280;20879;55.668;37.858;2023-09-18T08:12:47;100293.81;;;16.49;71.59
34674;BME280;20879;55.668;37.858;2023-09-18T08:15:24;100271.56;;;16.64;70.79
34674;BME280;20879;55.668;37.858;2023-09-18T08:17:59;100288.19;;;16.61;70.40
34674;BME280;20879;55.668;37.858;2023-09-18T08:20:31;100258.78;;;16.54;70.26
34674;BME280;20879;55.668;37.858;2023-09-18T08:23:04;100269.81;;;16.64;70.53
34674;BME280;20879;55.668;37.858;2023-09-18T08:25:33;100277.38;;;17.02;69.79
34674;BME280;20879;55.668;37.858;2023-09-18T08:28:08;100268.53;;;17.31;68.83
34674;BME280;20879;55.668;37.858;2023-09-18T08:30:38;100267.94;;;17.23;68.66
34674;BME280;20879;55.668;37.858;2023-09-18T08:33:14;100273.38;;;16.90;68.97
34674;BME280;20879;55.668;37.858;2023-09-18T08:35:49;100261.59;;;16.75;69.94
34674;BME280;20879;55.668;37.858;2023-09-18T08:38:24;100237.91;;;16.53;70.23
34674;BME280;20879;55.668;37.858;2023-09-18T08:41:01;100269.28;;;16.81;69.54
34674;BME280;20879;55.668;37.858;2023-09-18T08:43:32;100274.91;;;16.97;69.17
34674;BME280;20879;55.668;37.858;2023-09-18T08:46:04;100264.50;;;16.94;69.04
34674;BME280;20879;55.668;37.858;2023-09-18T08:48:36;100270.72;;;16.91;69.49
34674;BME280;20879;55.668;37.858;2023-09-18T08:51:14;100271.06;;;17.07;69.29
34674;BME280;20879;55.668;37.858;2023-09-18T08:53:47;100265.28;;;16.98;68.78
34674;BME280;20879;55.668;37.858;2023-09-18T08:56:24;100260.38;;;16.87;69.25
34674;BME280;20879;55.668;37.858;2023-09-18T08:58:57;100263.28;;;16.77;69.42
34674;BME280;20879;55.668;37.858;2023-09-18T09:01:28;100262.31;;;16.80;69.56
34674;BME280;20879;55.668;37.858;2023-09-18T09:04:10;100263.50;;;16.98;69.71
34674;BME280;20879;55.668;37.858;2023-09-18T09:06:51;100255.66;;;17.25;68.60
34674;BME280;20879;55.668;37.858;2023-09-18T09:09:25;100258.34;;;17.72;67.85
34674;BME280;20879;55.668;37.858;2023-09-18T09:11:56;100261.69;;;18.25;66.13
34674;BME280;20879;55.668;37.858;2023-09-18T09:14:27;100253.16;;;17.96;65.84
34674;BME280;20879;55.668;37.858;2023-09-18T09:16:57;100246.38;;;17.90;67.00
34674;BME280;20879;55.668;37.858;2023-09-18T09:19:33;100253.56;;;18.09;65.86
34674;BME280;20879;55.668;37.858;2023-09-18T09:22:08;100251.63;;;17.90;66.63
34674;BME280;20879;55.668;37.858;2023-09-18T09:24:50;100250.09;;;17.83;67.02
34674;BME280;20879;55.668;37.858;2023-09-18T09:27:23;100258.50;;;17.93;66.58
34674;BME280;20879;55.668;37.858;2023-09-18T09:30:04;100266.88;;;17.77;67.49
34674;BME280;20879;55.668;37.858;2023-09-18T09:32:40;100267.41;;;17.87;67.28
34674;BME280;20879;55.668;37.858;2023-09-18T09:35:12;100259.22;;;17.98;66.94
34674;BME280;20879;55.668;37.858;2023-09-18T09:38:06;100268.03;;;18.41;66.13
34674;BME280;20879;55.668;37.858;2023-09-18T09:40:40;100264.63;;;18.83;64.72
34674;BME280;20879;55.668;37.858;2023-09-18T09:43:16;100263.41;;;19.14;63.56
34674;BME280;20879;55.668;37.858;2023-09-18T09:45:55;100264.75;;;18.80;63.78
34674;BME280;20879;55.668;37.858;2023-09-18T09:48:31;100264.63;;;18.17;65.42
34674;BME280;20879;55.668;37.858;2023-09-18T09:51:04;100257.84;;;17.86;66.30
34674;BME280;20879;55.668;37.858;2023-09-18T09:53:45;100273.31;;;17.69;67.07
34674;BME280;20879;55.668;37.858;2023-09-18T09:56:40;100273.22;;;17.46;68.34
34674;BME280;20879;55.668;37.858;2023-09-18T09:59:14;100276.88;;;17.16;69.03
34674;BME280;20879;55.668;37.858;2023-09-18T10:01:50;100290.50;;;17.00;70.23
34674;BME280;20879;55.668;37.858;2023-09-18T10:04:24;100289.31;;;16.81;70.92
34674;BME280;20879;55.668;37.858;2023-09-18T10:07:04;100283.34;;;16.77;71.24
34674;BME280;20879;55.668;37.858;2023-09-18T10:09:41;100274.09;;;16.67;71.53
34674;BME280;20879;55.668;37.858;2023-09-18T10:12:15;100276.97;;;16.86;71.31
34674;BME280;20879;55.668;37.858;2023-09-18T10:14:55;100274.03;;;16.97;71.35
34674;BME280;20879;55.668;37.858;2023-09-18T10:17:33;100267.47;;;17.37;70.44
34674;BME280;20879;55.668;37.858;2023-09-18T10:20:17;100256.38;;;17.54;69.57
34674;BME280;20879;55.668;37.858;2023-09-18T10:22:53;100262.22;;;17.86;69.35
34674;BME280;20879;55.668;37.858;2023-09-18T10:25:29;100258.97;;;18.04;68.94
34674;BME280;20879;55.668;37.858;2023-09-18T10:28:07;100270.22;;;18.30;68.22
34674;BME280;20879;55.668;37.858;2023-09-18T10:30:50;100272.41;;;18.19;68.13
34674;BME280;20879;55.668;37.858;2023-09-18T10:33:23;100276.63;;;17.99;69.06
34674;BME280;20879;55.668;37.858;2023-09-18T10:36:07;100269.91;;;17.67;69.96
34674;BME280;20879;55.668;37.858;2023-09-18T10:38:39;100281.78;;;17.52;71.19
34674;BME280;20879;55.668;37.858;2023-09-18T10:41:14;100288.81;;;17.75;70.47
34674;BME280;20879;55.668;37.858;2023-09-18T10:43:56;100290.22;;;17.85;70.37
34674;BME280;20879;55.668;37.858;2023-09-18T10:46:32;100285.81;;;17.86;70.03
34674;BME280;20879;55.668;37.858;2023-09-18T10:49:04;100278.09;;;18.06;69.92
34674;BME280;20879;55.668;37.858;2023-09-18T10:51:44;100247.47;;;18.08;69.41
34674;BME280;20879;55.668;37.858;2023-09-18T10:54:20;100294.41;;;18.14;69.48
34674;BME280;20879;55.668;37.858;2023-09-18T10:56:59;100279.13;;;18.02;69.97
34674;BME280;20879;55.668;37.858;2023-09-18T10:59:30;100268.72;;;17.75;70.40
34674;BME280;20879;55.668;37.858;2023-09-18T11:02:08;100271.09;;;17.58;71.16
34674;BME280;20879;55.668;37.858;2023-09-18T11:04:52;100274.03;;;17.49;71.91
34674;BME280;20879;55.668;37.858;2023-09-18T11:07:29;100271.88;;;17.35;72.42
34674;BME280;20879;55.668;37.858;2023-09-18T11:10:27;100271.41;;;17.49;72.64
34674;BME280;20879;55.668;37.858;2023-09-18T11:13:09;100271.44;;;17.72;72.57
34674;BME280;20879;55.668;37.858;2023-09-18T11:15:45;100264.59;;;17.93;71.61
34674;BME280;20879;55.668;37.858;2023-09-18T11:18:19;100247.81;;;17.74;71.44
34674;BME280;20879;55.668;37.858;2023-09-18T11:21:10;100262.53;;;17.78;71.94
34674;BME280;20879;55.668;37.858;2023-09-18T11:23:40;100268.44;;;17.83;72.27
34674;BME280;20879;55.668;37.858;2023-09-18T11:26:15;100276.38;;;18.05;71.26
34674;BME280;20879;55.668;37.858;2023-09-18T11:28:48;100259.63;;;18.09;70.34
34674;BME280;20879;55.668;37.858;2023-09-18T11:31:41;100266.50;;;17.90;71.28
34674;BME280;20879;55.668;37.858;2023-09-18T11:34:26;100269.69;;;17.73;71.36
34674;BME280;20879;55.668;37.858;2023-09-18T11:37:19;100248.59;;;17.52;71.79
34674;BME280;20879;55.668;37.858;2023-09-18T11:39:58;100282.78;;;17.47;72.66
34674;BME280;20879;55.668;37.858;2023-09-18T11:42:31;100277.66;;;17.44;72.69
34674;BME280;20879;55.668;37.858;2023-09-18T11:45:20;100277.69;;;17.68;72.75
34674;BME280;20879;55.668;37.858;2023-09-18T11:47:59;100277.22;;;17.82;71.82
34674;BME280;20879;55.668;37.858;2023-09-18T11:50:30;100272.34;;;17.71;72.01
34674;BME280;20879;55.668;37.858;2023-09-18T11:53:04;100268.25;;;17.64;71.81
34674;BME280;20879;55.668;37.858;2023-09-18T11:55:41;100273.84;;;17.78;71.46
34674;BME280;20879;55.668;37.858;2023-09-18T11:58:20;100281.41;;;17.86;71.41
34674;BME280;20879;55.668;37.858;2023-09-18T12:00:53;100266.03;;;18.02;70.51
34674;BME280;20879;55.668;37.858;2023-09-18T12:03:32;100282.56;;;18.04;70.69
34674;BME280;20879;55.668;37.858;2023-09-18T12:06:12;100278.50;;;17.95;70.81
34674;BME280;20879;55.668;37.858;2023-09-18T12:08:45;100274.59;;;17.57;71.64
34674;BME280;20879;55.668;37.858;2023-09-18T12:11:22;100293.22;;;17.49;71.67
34674;BME280;20879;55.668;37.858;2023-09-18T12:14:02;100285.19;;;17.54;71.99
34674;BME280;20879;55.668;37.858;2023-09-18T12:16:40;100273.44;;;17.40;72.20
34674;BME280;20879;55.668;37.858;2023-09-18T12:19:19;100284.94;;;17.61;71.73
34674;BME280;20879;55.668;37.858;2023-09-18T12:21:53;100281.16;;;17.70;71.31
34674;BME280;20879;55.668;37.858;2023-09-18T12:24:32;100281.19;;;17.43;72.00
34674;BME280;20879;55.668;37.858;2023-09-18T12:27:04;100288.97;;;17.20;72.96
34674;BME280;20879;55.668;37.858;2023-09-18T12:29:38;100290.97;;;17.11;73.49
34674;BME280;20879;55.668;37.858;2023-09-18T12:32:33;100284.63;;;17.19;73.31
34674;BME280;20879;55.668;37.858;2023-09-18T12:35:20;100255.75;;;16.95;73.05
34674;BME280;20879;55.668;37.858;2023-09-18T12:37:54;100287.13;;;17.22;73.43
34674;BME280;20879;55.668;37.858;2023-09-18T12:40:31;100276.94;;;17.14;73.34
34674;BME280;20879;55.668;37.858;2023-09-18T12:49:18;100292.63;;;17.14;73.02
34674;BME280;20879;55.668;37.858;2023-09-18T12:52:00;100289.72;;;17.23;73.26
34674;BME280;20879;55.668;37.858;2023-09-18T12:54:40;100291.44;;;16.98;73.89
34674;BME280;20879;55.668;37.858;2023-09-18T12:57:17;100292.66;;;16.86;74.64
34674;BME280;20879;55.668;37.858;2023-09-18T12:59:49;100296.09;;;16.88;74.94
34674;BME280;20879;55.668;37.858;2023-09-18T13:02:35;100297.88;;;16.86;74.99
34674;BME280;20879;55.668;37.858;2023-09-18T13:05:22;100295.75;;;16.70;75.78
34674;BME280;20879;55.668;37.858;2023-09-18T13:07:54;100305.22;;;16.74;75.88
34674;BME280;20879;55.668;37.858;2023-09-18T13:10:26;100291.59;;;16.93;75.86
34674;BME280;20879;55.668;37.858;2023-09-18T13:13:16;100289.75;;;17.22;75.05
34674;BME280;20879;55.668;37.858;2023-09-18T13:15:49;100290.38;;;17.30;73.92
34674;BME280;20879;55.668;37.858;2023-09-18T13:18:24;100286.13;;;17.26;73.77
34674;BME280;20879;55.668;37.858;2023-09-18T13:21:14;100301.75;;;17.02;74.74
34674;BME280;20879;55.668;37.858;2023-09-18T13:23:52;100291.53;;;16.94;74.93
34674;BME280;20879;55.668;37.858;2023-09-18T13:26:33;100304.72;;;16.91;75.17
34674;BME280;20879;55.668;37.858;2023-09-18T13:29:08;100312.06;;;16.78;75.10